sensor_id;sensor_type;location;lat;lon;timestamp;pressure;altitude;pressure_sealevel;temperature;humidity
40490;BME280;26196;52.302;10.572;2023-05-18T00:00:12;101851.38;;;15.88;32.91
40490;BME280;26196;52.302;10.572;2023-05-18T00:04:15;101854.03;;;15.87;32.86
40490;BME280;26196;52.302;10.572;2023-05-18T00:08:16;101850.66;;;15.82;32.72
40490;BME280;26196;52.302;10.572;2023-05-18T00:12:16;101856.91;;;15.79;32.75
40490;BME280;26196;52.302;10.572;2023-05-18T00:16:16;101855.19;;;15.77;33.00
40490;BME280;26196;52.302;10.572;2023-05-18T00:20:17;101853.56;;;15.72;32.76
40490;BME280;26196;52.302;10.572;2023-05-18T00:24:21;101851.88;;;15.68;32.86
40490;BME280;26196;52.302;10.572;2023-05-18T00:28:21;101864.25;;;15.66;32.94
40490;BME280;26196;52.302;10.572;2023-05-18T00:32:22;101860.00;;;15.61;32.67
40490;BME280;26196;52.302;10.572;2023-05-18T00:36:22;101858.47;;;15.52;32.78
40490;BME280;26196;52.302;10.572;2023-05-18T00:40:23;101859.38;;;15.51;33.06
40490;BME280;26196;52.302;10.572;2023-05-18T00:44:25;101865.72;;;15.44;32.97
40490;BME280;26196;52.302;10.572;2023-05-18T00:48:25;101864.06;;;15.40;32.77
40490;BME280;26196;52.302;10.572;2023-05-18T00:52:26;101870.34;;;15.36;32.95
40490;BME280;26196;52.302;10.572;2023-05-18T00:56:28;101866.91;;;15.32;32.54
40490;BME280;26196;52.302;10.572;2023-05-18T01:00:28;101866.13;;;15.28;32.82
40490;BME280;26196;52.302;10.572;2023-05-18T01:04:29;101865.31;;;15.25;32.92
40490;BME280;26196;52.302;10.572;2023-05-18T01:08:31;101859.38;;;15.17;32.73
40490;BME280;26196;52.302;10.572;2023-05-18T01:12:57;101871.78;;;15.13;32.71
40490;BME280;26196;52.302;10.572;2023-05-18T01:21:17;101874.50;;;15.08;32.34
40490;BME280;26196;52.302;10.572;2023-05-18T01:25:45;101874.63;;;15.04;32.88
40490;BME280;26196;52.302;10.572;2023-05-18T01:29:50;101870.41;;;14.97;32.99
40490;BME280;26196;52.302;10.572;2023-05-18T01:33:51;101874.94;;;14.92;32.94
40490;BME280;26196;52.302;10.572;2023-05-18T01:37:51;101883.78;;;14.89;33.05
40490;BME280;26196;52.302;10.572;2023-05-18T01:41:55;101881.25;;;14.84;32.47
40490;BME280;26196;52.302;10.572;2023-05-18T01:46:04;101870.69;;;14.84;32.50
40490;BME280;26196;52.302;10.572;2023-05-18T01:50:13;101879.63;;;14.79;32.83
40490;BME280;26196;52.302;10.572;2023-05-18T01:54:15;101888.47;;;14.76;32.81
40490;BME280;26196;52.302;10.572;2023-05-18T01:58:17;101882.53;;;14.65;32.46
40490;BME280;26196;52.302;10.572;2023-05-18T02:02:18;101855.59;;;14.51;32.61
40490;BME280;26196;52.302;10.572;2023-05-18T02:06:18;101881.75;;;14.61;32.67
40490;BME280;26196;52.302;10.572;2023-05-18T02:10:19;101891.34;;;14.64;32.45
40490;BME280;26196;52.302;10.572;2023-05-18T02:14:19;101890.59;;;14.59;32.64
40490;BME280;26196;52.302;10.572;2023-05-18T02:18:19;101889.75;;;14.57;32.50
40490;BME280;26196;52.302;10.572;2023-05-18T02:22:21;101882.88;;;14.48;32.78
40490;BME280;26196;52.302;10.572;2023-05-18T02:26:21;101881.16;;;14.47;32.54
40490;BME280;26196;52.302;10.572;2023-05-18T02:30:21;101884.75;;;14.43;32.82
40490;BME280;26196;52.302;10.572;2023-05-18T02:34:22;101894.50;;;14.38;32.52
40490;BME280;26196;52.302;10.572;2023-05-18T02:38:23;101897.28;;;14.32;32.87
40490;BME280;26196;52.302;10.572;2023-05-18T02:42:23;101889.47;;;14.29;32.47
40490;BME280;26196;52.302;10.572;2023-05-18T02:46:24;101854.81;;;14.05;32.58
40490;BME280;26196;52.302;10.572;2023-05-18T02:50:24;101896.59;;;14.22;32.42
40490;BME280;26196;52.302;10.572;2023-05-18T02:54:25;101892.28;;;14.18;32.27
40490;BME280;26196;52.302;10.572;2023-05-18T02:58:25;101900.28;;;14.13;32.26
40490;BME280;26196;52.302;10.572;2023-05-18T03:02:26;101902.09;;;14.10;32.66
40490;BME280;26196;52.302;10.572;2023-05-18T03:06:27;101909.22;;;14.05;32.34
40490;BME280;26196;52.302;10.572;2023-05-18T03:10:29;101904.94;;;14.00;33.32
40490;BME280;26196;52.302;10.572;2023-05-18T03:14:29;101899.75;;;13.96;32.44
40490;BME280;26196;52.302;10.572;2023-05-18T03:18:30;101898.91;;;13.94;32.68
40490;BME280;26196;52.302;10.572;2023-05-18T03:22:31;101910.41;;;13.88;32.40
40490;BME280;26196;52.302;10.572;2023-05-18T03:26:31;101904.31;;;13.86;32.46
40490;BME280;26196;52.302;10.572;2023-05-18T03:30:32;101911.34;;;13.84;32.51
40490;BME280;26196;52.302;10.572;2023-05-18T03:34:32;101912.34;;;13.78;32.74
40490;BME280;26196;52.302;10.572;2023-05-18T03:38:33;101918.59;;;13.73;32.79
40490;BME280;26196;52.302;10.572;2023-05-18T03:42:33;101913.38;;;13.71;32.67
40490;BME280;26196;52.302;10.572;2023-05-18T03:46:33;101915.22;;;13.66;32.66
40490;BME280;26196;52.302;10.572;2023-05-18T03:50:34;101918.78;;;13.61;32.90
40490;BME280;26196;52.302;10.572;2023-05-18T03:54:35;101915.38;;;13.55;32.71
40490;BME280;26196;52.302;10.572;2023-05-18T03:58:35;101923.38;;;13.49;32.88
40490;BME280;26196;52.302;10.572;2023-05-18T04:02:36;101916.34;;;13.51;32.86
40490;BME280;26196;52.302;10.572;2023-05-18T04:06:36;101919.09;;;13.45;32.39
40490;BME280;26196;52.302;10.572;2023-05-18T04:10:42;101918.28;;;13.40;33.27
40490;BME280;26196;52.302;10.572;2023-05-18T04:14:44;101913.91;;;13.39;32.97
40490;BME280;26196;52.302;10.572;2023-05-18T04:18:48;101927.09;;;13.36;32.66
40490;BME280;26196;52.302;10.572;2023-05-18T04:22:49;101918.41;;;13.31;33.29
40490;BME280;26196;52.302;10.572;2023-05-18T04:26:49;101930.69;;;13.30;33.43
40490;BME280;26196;52.302;10.572;2023-05-18T04:30:50;101932.50;;;13.24;33.17
40490;BME280;26196;52.302;10.572;2023-05-18T04:34:50;101939.53;;;13.25;33.57
40490;BME280;26196;52.302;10.572;2023-05-18T04:38:51;101940.44;;;13.22;33.59
40490;BME280;26196;52.302;10.572;2023-05-18T04:42:51;101945.81;;;13.14;33.46
40490;BME280;26196;52.302;10.572;2023-05-18T04:46:53;101954.66;;;13.09;33.58
40490;BME280;26196;52.302;10.572;2023-05-18T04:50:53;101947.69;;;13.06;33.66
40490;BME280;26196;52.302;10.572;2023-05-18T04:54:55;101947.69;;;13.05;33.20
40490;BME280;26196;52.302;10.572;2023-05-18T04:58:55;101948.50;;;13.08;33.62
40490;BME280;26196;52.302;10.572;2023-05-18T05:02:58;101950.38;;;13.02;33.98
40490;BME280;26196;52.302;10.572;2023-05-18T05:06:58;101952.25;;;12.94;34.10
40490;BME280;26196;52.302;10.572;2023-05-18T05:11:00;101956.56;;;12.99;34.36
40490;BME280;26196;52.302;10.572;2023-05-18T05:15:00;101952.16;;;12.98;34.16
40490;BME280;26196;52.302;10.572;2023-05-18T05:19:01;101954.88;;;12.94;33.65
40490;BME280;26196;52.302;10.572;2023-05-18T05:23:01;101952.22;;;12.95;34.73
40490;BME280;26196;52.302;10.572;2023-05-18T05:27:01;101958.31;;;12.97;34.65
40490;BME280;26196;52.302;10.572;2023-05-18T05:31:02;101947.06;;;12.89;35.19
40490;BME280;26196;52.302;10.572;2023-05-18T05:35:03;101953.16;;;12.91;34.13
40490;BME280;26196;52.302;10.572;2023-05-18T05:39:03;101960.16;;;12.92;34.90
40490;BME280;26196;52.302;10.572;2023-05-18T05:43:04;101969.81;;;12.90;34.79
40490;BME280;26196;52.302;10.572;2023-05-18T05:47:05;101979.44;;;12.91;35.30
40490;BME280;26196;52.302;10.572;2023-05-18T05:51:06;101970.72;;;12.87;35.68
40490;BME280;26196;52.302;10.572;2023-05-18T05:55:06;101974.19;;;12.91;35.25
40490;BME280;26196;52.302;10.572;2023-05-18T05:59:07;101969.81;;;12.90;35.46
40490;BME280;26196;52.302;10.572;2023-05-18T06:03:07;101965.50;;;12.86;35.08
40490;BME280;26196;52.302;10.572;2023-05-18T06:07:07;101960.28;;;12.81;36.09
40490;BME280;26196;52.302;10.572;2023-05-18T06:11:08;101973.34;;;12.87;35.48
40490;BME280;26196;52.302;10.572;2023-05-18T06:15:09;101979.50;;;12.86;35.82
40490;BME280;26196;52.302;10.572;2023-05-18T06:19:09;101983.00;;;12.87;36.47
40490;BME280;26196;52.302;10.572;2023-05-18T06:23:10;101981.25;;;12.86;36.01
40490;BME280;26196;52.302;10.572;2023-05-18T06:27:10;101976.88;;;12.85;36.78
40490;BME280;26196;52.302;10.572;2023-05-18T06:31:10;101973.34;;;12.87;36.36
40490;BME280;26196;52.302;10.572;2023-05-18T06:35:11;101982.94;;;12.90;36.73
40490;BME280;26196;52.302;10.572;2023-05-18T06:39:12;101979.44;;;12.89;36.83
40490;BME280;26196;52.302;10.572;2023-05-18T06:43:13;101977.69;;;12.91;36.96
40490;BME280;26196;52.302;10.572;2023-05-18T06:47:13;101980.31;;;12.90;36.49
40490;BME280;26196;52.302;10.572;2023-05-18T06:51:14;101981.16;;;12.92;37.54
40490;BME280;26196;52.302;10.572;2023-05-18T06:55:15;101984.66;;;12.92;37.55
40490;BME280;26196;52.302;10.572;2023-05-18T06:59:15;101994.31;;;12.94;37.44
40490;BME280;26196;52.302;10.572;2023-05-18T07:03:15;101991.63;;;12.95;37.10
40490;BME280;26196;52.302;10.572;2023-05-18T07:07:16;101989.97;;;12.91;37.48
40490;BME280;26196;52.302;10.572;2023-05-18T07:11:16;101996.88;;;12.95;37.93
40490;BME280;26196;52.302;10.572;2023-05-18T07:15:16;101995.16;;;12.94;37.85
40490;BME280;26196;52.302;10.572;2023-05-18T07:19:17;101996.88;;;12.95;38.04
40490;BME280;26196;52.302;10.572;2023-05-18T07:23:17;101998.66;;;12.96;38.35
40490;BME280;26196;52.302;10.572;2023-05-18T07:27:18;102000.31;;;13.02;38.31
40490;BME280;26196;52.302;10.572;2023-05-18T07:31:18;101998.56;;;13.01;38.01
40490;BME280;26196;52.302;10.572;2023-05-18T07:35:20;101997.66;;;13.03;38.53
40490;BME280;26196;52.302;10.572;2023-05-18T07:39:21;101999.41;;;13.04;38.70
40490;BME280;26196;52.302;10.572;2023-05-18T07:43:27;101996.78;;;13.04;38.55
40490;BME280;26196;52.302;10.572;2023-05-18T07:47:27;101990.63;;;13.07;39.01
40490;BME280;26196;52.302;10.572;2023-05-18T07:51:28;101988.78;;;13.12;39.71
40490;BME280;26196;52.302;10.572;2023-05-18T07:55:28;101994.06;;;13.12;39.20
40490;BME280;26196;52.302;10.572;2023-05-18T07:59:29;101993.13;;;13.14;39.08
40490;BME280;26196;52.302;10.572;2023-05-18T08:03:30;101982.63;;;13.13;38.87
40490;BME280;26196;52.302;10.572;2023-05-18T08:07:31;102002.66;;;13.23;39.84
40490;BME280;26196;52.302;10.572;2023-05-18T08:11:32;102000.00;;;13.25;39.90
40490;BME280;26196;52.302;10.572;2023-05-18T08:15:33;101998.22;;;13.30;39.57
40490;BME280;26196;52.302;10.572;2023-05-18T08:19:34;101997.31;;;13.31;39.51
40490;BME280;26196;52.302;10.572;2023-05-18T08:23:36;101979.81;;;13.30;39.87
40490;BME280;26196;52.302;10.572;2023-05-18T08:27:37;101987.59;;;13.36;40.24
40490;BME280;26196;52.302;10.572;2023-05-18T08:31:38;101990.09;;;13.44;39.89
40490;BME280;26196;52.302;10.572;2023-05-18T08:35:39;101994.47;;;13.45;40.04
40490;BME280;26196;52.302;10.572;2023-05-18T08:39:40;101990.09;;;13.45;39.64
40490;BME280;26196;52.302;10.572;2023-05-18T08:43:42;101984.72;;;13.51;40.50
40490;BME280;26196;52.302;10.572;2023-05-18T08:47:45;101975.06;;;13.52;39.99
40490;BME280;26196;52.302;10.572;2023-05-18T08:51:53;101979.34;;;13.57;40.28
40490;BME280;26196;52.302;10.572;2023-05-18T08:55:56;101960.16;;;13.52;39.61
40490;BME280;26196;52.302;10.572;2023-05-18T08:59:58;101969.75;;;13.56;40.08
40490;BME280;26196;52.302;10.572;2023-05-18T09:04:00;101971.38;;;13.64;40.40
40490;BME280;26196;52.302;10.572;2023-05-18T09:08:01;101974.03;;;13.64;40.64
40490;BME280;26196;52.302;10.572;2023-05-18T09:16:59;101965.91;;;13.76;40.24
40490;BME280;26196;52.302;10.572;2023-05-18T09:20:59;101976.41;;;13.77;40.46
40490;BME280;26196;52.302;10.572;2023-05-18T09:25:04;101971.09;;;13.79;40.91
40490;BME280;26196;52.302;10.572;2023-05-18T09:29:19;101962.28;;;13.83;40.96
40490;BME280;26196;52.302;10.572;2023-05-18T09:33:20;101959.56;;;13.88;40.81
40490;BME280;26196;52.302;10.572;2023-05-18T09:37:23;101960.41;;;13.88;40.62
40490;BME280;26196;52.302;10.572;2023-05-18T09:41:25;101950.66;;;13.95;41.08
40490;BME280;26196;52.302;10.572;2023-05-18T09:45:26;101941.88;;;13.96;41.24
40490;BME280;26196;52.302;10.572;2023-05-18T09:49:30;101957.53;;;14.04;41.62
40490;BME280;26196;52.302;10.572;2023-05-18T09:53:31;101961.78;;;14.11;41.57
40490;BME280;26196;52.302;10.572;2023-05-18T09:57:44;101955.59;;;14.13;41.69
40490;BME280;26196;52.302;10.572;2023-05-18T10:01:58;101956.38;;;14.17;40.89
40490;BME280;26196;52.302;10.572;2023-05-18T10:06:06;101954.59;;;14.19;41.01
40490;BME280;26196;52.302;10.572;2023-05-18T10:10:07;101950.19;;;14.21;41.05
40490;BME280;26196;52.302;10.572;2023-05-18T10:14:10;101948.38;;;14.23;41.22
40490;BME280;26196;52.302;10.572;2023-05-18T10:18:10;101939.59;;;14.24;40.94
40490;BME280;26196;52.302;10.572;2023-05-18T10:22:14;101945.66;;;14.28;41.26
40490;BME280;26196;52.302;10.572;2023-05-18T10:26:15;101942.16;;;14.27;41.40
40490;BME280;26196;52.302;10.572;2023-05-18T10:30:18;101935.88;;;14.34;41.48
40490;BME280;26196;52.302;10.572;2023-05-18T10:34:22;101935.81;;;14.36;41.11
40490;BME280;26196;52.302;10.572;2023-05-18T10:38:25;101927.97;;;14.34;41.11
40490;BME280;26196;52.302;10.572;2023-05-18T10:42:28;101932.19;;;14.41;40.46
40490;BME280;26196;52.302;10.572;2023-05-18T10:46:29;101925.06;;;14.47;41.03
40490;BME280;26196;52.302;10.572;2023-05-18T10:50:30;101925.03;;;14.50;41.28
40490;BME280;26196;52.302;10.572;2023-05-18T10:54:31;101912.66;;;14.52;41.21
40490;BME280;26196;52.302;10.572;2023-05-18T10:58:34;101905.66;;;14.51;41.40
40490;BME280;26196;52.302;10.572;2023-05-18T11:02:39;101905.53;;;14.58;40.97
40490;BME280;26196;52.302;10.572;2023-05-18T11:06:41;101908.03;;;14.64;41.26
40490;BME280;26196;52.302;10.572;2023-05-18T11:10:43;101902.75;;;14.66;41.29
40490;BME280;26196;52.302;10.572;2023-05-18T11:14:50;101901.81;;;14.69;41.23
40490;BME280;26196;52.302;10.572;2023-05-18T11:18:51;101885.16;;;14.65;41.31
40490;BME280;26196;52.302;10.572;2023-05-18T11:27:01;101892.78;;;14.79;41.25
40490;BME280;26196;52.302;10.572;2023-05-18T11:31:04;101895.38;;;14.80;41.58
40490;BME280;26196;52.302;10.572;2023-05-18T11:35:05;101893.56;;;14.82;41.77
40490;BME280;26196;52.302;10.572;2023-05-18T11:39:10;101889.16;;;14.83;41.14
40490;BME280;26196;52.302;10.572;2023-05-18T11:43:20;101882.16;;;14.83;41.45
40490;BME280;26196;52.302;10.572;2023-05-18T11:47:22;101884.63;;;14.90;41.61
40490;BME280;26196;52.302;10.572;2023-05-18T11:51:31;101894.16;;;14.95;41.20
40490;BME280;26196;52.302;10.572;2023-05-18T11:55:37;101894.94;;;14.99;41.57
40490;BME280;26196;52.302;10.572;2023-05-18T11:59:43;101896.66;;;15.01;40.83
40490;BME280;26196;52.302;10.572;2023-05-18T12:03:44;101896.63;;;15.03;41.25
40490;BME280;26196;52.302;10.572;2023-05-18T12:07:51;101893.88;;;15.07;41.04
40490;BME280;26196;52.302;10.572;2023-05-18T12:11:51;101892.94;;;15.10;41.71
40490;BME280;26196;52.302;10.572;2023-05-18T12:15:53;101887.59;;;15.13;41.48
40490;BME280;26196;52.302;10.572;2023-05-18T12:19:54;101884.88;;;15.16;41.12
40490;BME280;26196;52.302;10.572;2023-05-18T12:23:59;101867.34;;;15.15;40.94
40490;BME280;26196;52.302;10.572;2023-05-18T12:28:00;101881.22;;;15.22;41.43
40490;BME280;26196;52.302;10.572;2023-05-18T12:32:04;101888.09;;;15.27;40.93
40490;BME280;26196;52.302;10.572;2023-05-18T12:36:09;101882.81;;;15.29;41.12
40490;BME280;26196;52.302;10.572;2023-05-18T12:40:10;101881.00;;;15.31;40.73
40490;BME280;26196;52.302;10.572;2023-05-18T12:44:11;101880.94;;;15.32;40.80
40490;BME280;26196;52.302;10.572;2023-05-18T12:48:12;101868.69;;;15.30;41.24
40490;BME280;26196;52.302;10.572;2023-05-18T12:52:14;101870.28;;;15.37;40.70
40490;BME280;26196;52.302;10.572;2023-05-18T12:56:14;101866.69;;;15.40;41.07
40490;BME280;26196;52.302;10.572;2023-05-18T13:00:18;101863.09;;;15.44;41.06
40490;BME280;26196;52.302;10.572;2023-05-18T13:04:18;101859.50;;;15.46;41.13
40490;BME280;26196;52.302;10.572;2023-05-18T13:08:19;101861.19;;;15.49;41.72
40490;BME280;26196;52.302;10.572;2023-05-18T13:12:38;101859.34;;;15.52;41.44
40490;BME280;26196;52.302;10.572;2023-05-18T13:16:43;101851.31;;;15.57;41.25
40490;BME280;26196;52.302;10.572;2023-05-18T13:20:49;101844.22;;;15.59;40.83
40490;BME280;26196;52.302;10.572;2023-05-18T13:24:50;101847.66;;;15.61;40.82
40490;BME280;26196;52.302;10.572;2023-05-18T13:28:52;101842.31;;;15.64;40.68
40490;BME280;26196;52.302;10.572;2023-05-18T13:32:53;101842.28;;;15.66;41.09
40490;BME280;26196;52.302;10.572;2023-05-18T13:36:53;101843.09;;;15.69;41.17
40490;BME280;26196;52.302;10.572;2023-05-18T13:40:55;101834.22;;;15.72;41.56
40490;BME280;26196;52.302;10.572;2023-05-18T13:44:55;101838.53;;;15.74;41.60
40490;BME280;26196;52.302;10.572;2023-05-18T13:48:56;101832.28;;;15.79;41.47
40490;BME280;26196;52.302;10.572;2023-05-18T13:52:56;101826.91;;;15.82;41.63
40490;BME280;26196;52.302;10.572;2023-05-18T13:56:56;101815.38;;;15.84;41.35
40490;BME280;26196;52.302;10.572;2023-05-18T14:00:57;101821.47;;;15.88;41.65
40490;BME280;26196;52.302;10.572;2023-05-18T14:04:57;101819.59;;;15.91;41.62
40490;BME280;26196;52.302;10.572;2023-05-18T14:08:58;101826.56;;;15.94;41.50
40490;BME280;26196;52.302;10.572;2023-05-18T14:12:58;101814.19;;;15.96;41.16
40490;BME280;26196;52.302;10.572;2023-05-18T14:16:58;101811.47;;;15.99;41.25
40490;BME280;26196;52.302;10.572;2023-05-18T14:20:59;101797.28;;;16.02;41.48
40490;BME280;26196;52.302;10.572;2023-05-18T14:25:01;101796.25;;;16.07;42.20
40490;BME280;26196;52.302;10.572;2023-05-18T14:29:02;101787.56;;;16.04;41.45
40490;BME280;26196;52.302;10.572;2023-05-18T14:33:02;101792.56;;;16.13;41.46
40490;BME280;26196;52.302;10.572;2023-05-18T14:37:03;101788.06;;;16.16;41.67
40490;BME280;26196;52.302;10.572;2023-05-18T14:41:03;101797.66;;;16.19;41.70
40490;BME280;26196;52.302;10.572;2023-05-18T14:45:04;101790.50;;;16.23;41.94
40490;BME280;26196;52.302;10.572;2023-05-18T14:49:05;101783.44;;;16.23;42.11
40490;BME280;26196;52.302;10.572;2023-05-18T14:53:05;101785.84;;;16.31;44.34
40490;BME280;26196;52.302;10.572;2023-05-18T14:57:05;101783.19;;;16.32;45.37
40490;BME280;26196;52.302;10.572;2023-05-18T15:01:06;101782.22;;;16.35;44.84
40490;BME280;26196;52.302;10.572;2023-05-18T15:05:06;101785.66;;;16.37;44.69
40490;BME280;26196;52.302;10.572;2023-05-18T15:09:07;101795.25;;;16.39;45.13
40490;BME280;26196;52.302;10.572;2023-05-18T15:13:07;101782.13;;;16.38;45.13
40490;BME280;26196;52.302;10.572;2023-05-18T15:17:07;101786.38;;;16.42;43.99
40490;BME280;26196;52.302;10.572;2023-05-18T15:21:08;101790.69;;;16.45;44.68
40490;BME280;26196;52.302;10.572;2023-05-18T15:25:08;101783.66;;;16.45;42.33
40490;BME280;26196;52.302;10.572;2023-05-18T15:29:08;101788.97;;;16.44;45.66
40490;BME280;26196;52.302;10.572;2023-05-18T15:33:09;101789.81;;;16.46;45.27
40490;BME280;26196;52.302;10.572;2023-05-18T15:37:09;101782.63;;;16.49;42.02
40490;BME280;26196;52.302;10.572;2023-05-18T15:41:09;101780.81;;;16.51;41.54
40490;BME280;26196;52.302;10.572;2023-05-18T15:45:10;101769.53;;;16.46;41.05
40490;BME280;26196;52.302;10.572;2023-05-18T15:49:11;101781.53;;;16.56;40.52
40490;BME280;26196;52.302;10.572;2023-05-18T15:53:11;101775.50;;;16.53;41.20
40490;BME280;26196;52.302;10.572;2023-05-18T15:57:12;101769.31;;;16.52;42.13
40490;BME280;26196;52.302;10.572;2023-05-18T16:01:12;101765.69;;;16.56;41.24
40490;BME280;26196;52.302;10.572;2023-05-18T16:05:13;101759.56;;;16.54;43.17
40490;BME280;26196;52.302;10.572;2023-05-18T16:09:13;101757.88;;;16.52;42.11
40490;BME280;26196;52.302;10.572;2023-05-18T16:13:13;101759.47;;;16.57;44.37
40490;BME280;26196;52.302;10.572;2023-05-18T16:17:14;101758.56;;;16.58;42.85
40490;BME280;26196;52.302;10.572;2023-05-18T16:21:15;101761.09;;;16.61;42.62
40490;BME280;26196;52.302;10.572;2023-05-18T16:25:15;101761.09;;;16.61;42.19
40490;BME280;26196;52.302;10.572;2023-05-18T16:29:16;101769.94;;;16.60;42.02
40490;BME280;26196;52.302;10.572;2023-05-18T16:33:16;101771.69;;;16.61;42.27
40490;BME280;26196;52.302;10.572;2023-05-18T16:37:16;101762.91;;;16.61;41.77
40490;BME280;26196;52.302;10.572;2023-05-18T16:41:17;101759.44;;;16.59;43.17
40490;BME280;26196;52.302;10.572;2023-05-18T16:45:17;101760.19;;;16.62;42.37
40490;BME280;26196;52.302;10.572;2023-05-18T16:49:18;101761.09;;;16.61;41.91
40490;BME280;26196;52.302;10.572;2023-05-18T16:53:19;101764.50;;;16.65;42.02
40490;BME280;26196;52.302;10.572;2023-05-18T16:57:20;101759.22;;;16.65;42.54
40490;BME280;26196;52.302;10.572;2023-05-18T17:01:21;101751.34;;;16.63;42.67
40490;BME280;26196;52.302;10.572;2023-05-18T17:05:21;101757.41;;;16.67;42.55
40490;BME280;26196;52.302;10.572;2023-05-18T17:09:22;101759.09;;;16.68;42.97
40490;BME280;26196;52.302;10.572;2023-05-18T17:13:22;101760.84;;;16.69;43.85
40490;BME280;26196;52.302;10.572;2023-05-18T17:17:22;101746.06;;;16.63;43.80
40490;BME280;26196;52.302;10.572;2023-05-18T17:21:23;101760.00;;;16.69;44.82
40490;BME280;26196;52.302;10.572;2023-05-18T17:25:25;101758.16;;;16.71;44.07
40490;BME280;26196;52.302;10.572;2023-05-18T17:29:26;101754.75;;;16.67;44.31
40490;BME280;26196;52.302;10.572;2023-05-18T17:33:27;101763.44;;;16.71;44.35
40490;BME280;26196;52.302;10.572;2023-05-18T17:37:27;101756.44;;;16.70;43.22
40490;BME280;26196;52.302;10.572;2023-05-18T17:41:27;101757.25;;;16.72;42.99
40490;BME280;26196;52.302;10.572;2023-05-18T17:45:28;101760.91;;;16.68;42.43
40490;BME280;26196;52.302;10.572;2023-05-18T17:49:28;101769.63;;;16.71;42.89
40490;BME280;26196;52.302;10.572;2023-05-18T17:53:29;101766.06;;;16.71;42.76
40490;BME280;26196;52.302;10.572;2023-05-18T17:57:30;101771.38;;;16.71;43.21
40490;BME280;26196;52.302;10.572;2023-05-18T18:01:32;101769.66;;;16.70;43.07
40490;BME280;26196;52.302;10.572;2023-05-18T18:05:33;101771.38;;;16.71;41.93
40490;BME280;26196;52.302;10.572;2023-05-18T18:09:34;101758.25;;;16.68;42.58
40490;BME280;26196;52.302;10.572;2023-05-18T18:13:37;101755.75;;;16.63;43.12
40490;BME280;26196;52.302;10.572;2023-05-18T18:17:37;101765.31;;;16.67;42.59
40490;BME280;26196;52.302;10.572;2023-05-18T18:21:38;101771.47;;;16.68;43.52
40490;BME280;26196;52.302;10.572;2023-05-18T18:25:38;101776.63;;;16.72;42.82
40490;BME280;26196;52.302;10.572;2023-05-18T18:29:39;101780.22;;;16.70;42.59
40490;BME280;26196;52.302;10.572;2023-05-18T18:33:39;101779.41;;;16.68;42.43
40490;BME280;26196;52.302;10.572;2023-05-18T18:37:40;101782.03;;;16.68;43.68
40490;BME280;26196;52.302;10.572;2023-05-18T18:41:41;101791.63;;;16.72;43.21
40490;BME280;26196;52.302;10.572;2023-05-18T18:45:42;101784.59;;;16.71;43.01
40490;BME280;26196;52.302;10.572;2023-05-18T18:49:42;101790.75;;;16.71;43.42
40490;BME280;26196;52.302;10.572;2023-05-18T18:53:42;101795.09;;;16.74;43.04
40490;BME280;26196;52.302;10.572;2023-05-18T18:57:43;101790.03;;;16.66;42.73
40490;BME280;26196;52.302;10.572;2023-05-18T19:01:44;101792.63;;;16.68;43.94
40490;BME280;26196;52.302;10.572;2023-05-18T19:05:45;101802.88;;;16.78;44.05
40490;BME280;26196;52.302;10.572;2023-05-18T19:09:45;101782.97;;;16.67;45.11
40490;BME280;26196;52.302;10.572;2023-05-18T19:13:46;101805.72;;;16.71;45.31
40490;BME280;26196;52.302;10.572;2023-05-18T19:17:46;101797.09;;;16.66;45.66
40490;BME280;26196;52.302;10.572;2023-05-18T19:21:51;101804.69;;;16.76;42.83
40490;BME280;26196;52.302;10.572;2023-05-18T19:25:51;101810.84;;;16.77;43.85
40490;BME280;26196;52.302;10.572;2023-05-18T19:29:54;101814.38;;;16.76;45.06
40490;BME280;26196;52.302;10.572;2023-05-18T19:33:54;101805.66;;;16.74;43.82
40490;BME280;26196;52.302;10.572;2023-05-18T19:37:54;101808.34;;;16.72;43.28
40490;BME280;26196;52.302;10.572;2023-05-18T19:41:55;101808.38;;;16.71;44.79
40490;BME280;26196;52.302;10.572;2023-05-18T19:50:52;101801.59;;;16.63;44.56
40490;BME280;26196;52.302;10.572;2023-05-18T19:59:49;101811.22;;;16.65;44.78
40490;BME280;26196;52.302;10.572;2023-05-18T20:03:50;101797.19;;;16.62;45.46
40490;BME280;26196;52.302;10.572;2023-05-18T20:07:50;101806.88;;;16.63;45.25
40490;BME280;26196;52.302;10.572;2023-05-18T20:11:51;101796.47;;;16.57;45.28
40490;BME280;26196;52.302;10.572;2023-05-18T20:15:52;101800.84;;;16.58;44.54
40490;BME280;26196;52.302;10.572;2023-05-18T20:19:52;101802.56;;;16.59;44.54
40490;BME280;26196;52.302;10.572;2023-05-18T20:23:53;101810.53;;;16.58;44.59
40490;BME280;26196;52.302;10.572;2023-05-18T20:27:53;101806.22;;;16.55;43.89
40490;BME280;26196;52.302;10.572;2023-05-18T20:31:55;101805.31;;;16.56;43.92
40490;BME280;26196;52.302;10.572;2023-05-18T20:35:56;101813.25;;;16.56;43.43
40490;BME280;26196;52.302;10.572;2023-05-18T20:39:56;101813.28;;;16.55;43.38
40490;BME280;26196;52.302;10.572;2023-05-18T20:43:57;101822.19;;;16.52;42.90
40490;BME280;26196;52.302;10.572;2023-05-18T20:48:01;101820.44;;;16.53;43.76
40490;BME280;26196;52.302;10.572;2023-05-18T20:52:02;101817.84;;;16.50;43.22
40490;BME280;26196;52.302;10.572;2023-05-18T20:56:03;101822.25;;;16.51;43.33
40490;BME280;26196;52.302;10.572;2023-05-18T21:00:06;101826.66;;;16.50;41.60
40490;BME280;26196;52.302;10.572;2023-05-18T21:04:08;101826.72;;;16.49;41.63
40490;BME280;26196;52.302;10.572;2023-05-18T21:08:08;101832.00;;;16.49;41.61